Terminal Aerodrome Forecast
Issued by NWS Cleveland, OH

Home | Current Version | Previous Version | Text Only | Print | Product List | Glossary Off
Versions: 1 2 3 4 5 6 7 8 9 10 11 12 13 14 15 16 17 18 19 20 21 22 23 24 25 26 27 28 29 30

955
FTUS41 KCLE 090401 AAB
TAFCLE
TAF AMD
KCLE 090401Z 0904/1006 25006KT 3SM -SN BR OVC012
      TEMPO 0904/0905 1SM -SN BR OVC004
     FM090600 25006KT 6SM -SHSN BR OVC015
     FM090900 26008KT 5SM -SN OVC008
      TEMPO 0909/0913 2SM -SN
     FM091600 28012KT 5SM -SHSN OVC012
     FM092000 27014KT P6SM BKN025=

USA.gov is the U.S. government's official web portal to all federal, state and local government web resources and services.